Airfield :
LOGIN :

Register | Disclaimer

   EN    FR    IT 

 










Legend :    VFR   Marginal VFR   IFR   Intensive IFR   Very Intensive IFR
Visi :
Ceiling :
>= 8 km
>= 3000ft
5 to 8 km
1000 to 3000 ft
1500m to 5 km
500 to 1000 ft
800 to 1500m
200 to 500 ft
< 800m
< 200 ft
Symbols :   Thunderstorms  Fog  Heavy snow  Heavy precipitations  Wind > 20 kt
SIGMETs :     Misc.  Thunderstorms  Icing  Turbulence  Mountain Waves  Volcanic Ashes







- Airport Elevation : 796 ft
- IATA code : SYT
- Download approach charts


LFLN - Saint-Yan

CURRENT METAR :
  • 162200Z AUTO 28004KT 9999 FEW024 SCT039 BKN052 02/00 Q1023 BECMG BKN010

EXPIRED METARs :
  • 162130Z AUTO 28004KT 9999 FEW046 BKN054 BKN170 02/00 Q1023 BECMG BKN010
  • 162100Z AUTO 27003KT 250V310 9999 FEW018 SCT026 BKN056 02/00 Q1023 TEMPO BKN008
  • 162030Z AUTO 29004KT 9999 BKN012 BKN019 BKN029 02/00 Q1023 TEMPO BKN008
  • 162000Z AUTO 28004KT 250V310 9999 FEW018 SCT028 BKN064 02/00 Q1022 TEMPO BKN008
  • 161930Z AUTO 28009KT 9999 FEW010 BKN020 BKN030 03/01 Q1022 TEMPO BKN008

TAF AMD TAF LFLN
Valid from the 16 at 22:00 until the 17 at 03:00 UTC


162201Z 1622/1703 28005KT 9999 FEW040 BKN050
PROB40
TEMPO 1622/1623 4000 -SHRASN BKN008
TEMPO 1702/1703 2500 -SHSNRA BKN005
No reported NOTAMs for that airfield.
1 SIGMET reported for the Marseille FIR (LFMM) :
 
Severe turbulence
LFMM SIGMET 7 VALID 162000/162300 LFPW
LFMM MARSEILLE FIR/UIR SEV TURB FCST WI N4115 E00430 - N4200 E00430 - N4215 E00230 - N4330 E00245 - N4415 E00330 - N4415 E00515 - N4100 E00715 - N4115 E00430 SFC/FL050 STNR NC=



MET'MAP, your aeronautical weather chart ! - Copyright ORBIFLY December 2007 - Disclaimer

ORBIFLY MET'MAP TEAM :

Programming & Development : Alexandra Zaïnal
Concept & Development : Baudouin d'Aumeries
Co-Development & Prog : Marc-Olivier Méhu
Technical & hardware support : Manuel Goepfert

Contact : metmap@orbifly.com




SOURCES & CREDITS :

   NOAA